sensor_id;sensor_type;location;lat;lon;timestamp;P1;durP1;ratioP1;P2;durP2;ratioP2
37341;SDS011;58643;49.052;8.518;2023-09-12T08:55:08;11.98;;;7.55;;
37341;SDS011;58643;49.052;8.518;2023-09-12T08:57:35;15.00;;;7.82;;
37341;SDS011;58643;49.052;8.518;2023-09-12T09:00:03;13.35;;;8.48;;
37341;SDS011;58643;49.052;8.518;2023-09-12T09:02:31;15.43;;;7.40;;
37341;SDS011;58643;49.052;8.518;2023-09-12T09:04:59;15.90;;;8.00;;
37341;SDS011;58643;49.052;8.518;2023-09-12T09:07:26;10.43;;;7.47;;
37341;SDS011;58643;49.052;8.518;2023-09-12T09:09:54;13.68;;;6.93;;
37341;SDS011;58643;49.052;8.518;2023-09-12T09:12:21;15.48;;;7.05;;
37341;SDS011;58643;49.052;8.518;2023-09-12T09:14:46;11.75;;;7.60;;
37341;SDS011;58643;49.052;8.518;2023-09-12T09:17:12;15.23;;;7.80;;
37341;SDS011;58643;49.052;8.518;2023-09-12T09:19:42;11.63;;;6.55;;
37341;SDS011;58643;49.052;8.518;2023-09-12T09:22:09;15.52;;;6.85;;
37341;SDS011;58643;49.052;8.518;2023-09-12T09:24:35;15.02;;;6.90;;
37341;SDS011;58643;49.052;8.518;2023-09-12T09:27:01;10.40;;;6.93;;
37341;SDS011;58643;49.052;8.518;2023-09-12T09:41:51;14.15;;;6.82;;
37341;SDS011;58643;49.052;8.518;2023-09-12T09:44:18;10.68;;;7.05;;
37341;SDS011;58643;49.052;8.518;2023-09-12T09:46:46;12.77;;;6.63;;
37341;SDS011;58643;49.052;8.518;2023-09-12T09:49:16;12.80;;;7.10;;
37341;SDS011;58643;49.052;8.518;2023-09-12T09:54:13;10.15;;;7.38;;
37341;SDS011;58643;49.052;8.518;2023-09-12T09:56:49;16.50;;;7.15;;
37341;SDS011;58643;49.052;8.518;2023-09-12T09:59:18;9.50;;;7.13;;
37341;SDS011;58643;49.052;8.518;2023-09-12T10:01:46;10.48;;;7.47;;
37341;SDS011;58643;49.052;8.518;2023-09-12T10:04:14;10.48;;;7.63;;
37341;SDS011;58643;49.052;8.518;2023-09-12T10:06:41;14.38;;;8.55;;
37341;SDS011;58643;49.052;8.518;2023-09-12T10:11:35;17.10;;;7.82;;
37341;SDS011;58643;49.052;8.518;2023-09-12T10:14:03;13.43;;;8.00;;
37341;SDS011;58643;49.052;8.518;2023-09-12T10:16:30;11.32;;;7.30;;
37341;SDS011;58643;49.052;8.518;2023-09-12T10:22:03;16.42;;;7.60;;
37341;SDS011;58643;49.052;8.518;2023-09-12T10:24:35;10.70;;;6.88;;
37341;SDS011;58643;49.052;8.518;2023-09-12T10:27:01;16.77;;;7.53;;
37341;SDS011;58643;49.052;8.518;2023-09-12T10:29:29;12.45;;;7.15;;
37341;SDS011;58643;49.052;8.518;2023-09-12T10:31:55;13.48;;;7.22;;
37341;SDS011;58643;49.052;8.518;2023-09-12T10:34:21;9.25;;;6.40;;
37341;SDS011;58643;49.052;8.518;2023-09-12T10:39:16;9.48;;;6.63;;
37341;SDS011;58643;49.052;8.518;2023-09-12T10:41:45;11.57;;;6.72;;
37341;SDS011;58643;49.052;8.518;2023-09-12T10:44:14;11.13;;;6.93;;
37341;SDS011;58643;49.052;8.518;2023-09-12T10:46:41;14.15;;;6.80;;
37341;SDS011;58643;49.052;8.518;2023-09-12T10:49:09;13.02;;;6.88;;
37341;SDS011;58643;49.052;8.518;2023-09-12T10:51:38;13.73;;;6.85;;
37341;SDS011;58643;49.052;8.518;2023-09-12T10:54:05;14.90;;;6.80;;
37341;SDS011;58643;49.052;8.518;2023-09-12T10:56:32;11.20;;;6.97;;
37341;SDS011;58643;49.052;8.518;2023-09-12T11:01:35;13.98;;;7.13;;
37341;SDS011;58643;49.052;8.518;2023-09-12T11:06:52;10.20;;;6.30;;
37341;SDS011;58643;49.052;8.518;2023-09-12T11:09:21;9.75;;;6.75;;
37341;SDS011;58643;49.052;8.518;2023-09-12T11:14:23;11.80;;;6.75;;
37341;SDS011;58643;49.052;8.518;2023-09-12T11:19:45;9.38;;;6.10;;
37341;SDS011;58643;49.052;8.518;2023-09-12T11:22:36;14.02;;;7.57;;
37341;SDS011;58643;49.052;8.518;2023-09-12T11:25:18;11.15;;;6.50;;
37341;SDS011;58643;49.052;8.518;2023-09-12T11:27:45;10.88;;;6.10;;
37341;SDS011;58643;49.052;8.518;2023-09-12T11:30:30;10.30;;;6.20;;
37341;SDS011;58643;49.052;8.518;2023-09-12T11:32:56;14.95;;;6.47;;
37341;SDS011;58643;49.052;8.518;2023-09-12T11:35:23;9.43;;;6.97;;
37341;SDS011;58643;49.052;8.518;2023-09-12T11:37:53;10.75;;;6.55;;
37341;SDS011;58643;49.052;8.518;2023-09-12T11:40:24;10.63;;;6.70;;
37341;SDS011;58643;49.052;8.518;2023-09-12T11:42:59;9.07;;;6.40;;
37341;SDS011;58643;49.052;8.518;2023-09-12T11:45:25;10.85;;;6.25;;
37341;SDS011;58643;49.052;8.518;2023-09-12T11:47:53;8.13;;;6.57;;
37341;SDS011;58643;49.052;8.518;2023-09-12T11:50:34;11.43;;;6.30;;
37341;SDS011;58643;49.052;8.518;2023-09-12T11:53:04;11.80;;;6.32;;
37341;SDS011;58643;49.052;8.518;2023-09-12T11:55:54;9.60;;;5.65;;
37341;SDS011;58643;49.052;8.518;2023-09-12T11:58:19;9.32;;;6.15;;
37341;SDS011;58643;49.052;8.518;2023-09-12T12:00:45;12.18;;;6.30;;
37341;SDS011;58643;49.052;8.518;2023-09-12T12:03:16;11.70;;;6.20;;
37341;SDS011;58643;49.052;8.518;2023-09-12T12:05:53;9.43;;;6.45;;
37341;SDS011;58643;49.052;8.518;2023-09-12T12:08:19;8.85;;;5.80;;
37341;SDS011;58643;49.052;8.518;2023-09-12T12:10:49;8.32;;;6.10;;
37341;SDS011;58643;49.052;8.518;2023-09-12T12:13:19;9.25;;;6.13;;
37341;SDS011;58643;49.052;8.518;2023-09-12T12:15:46;12.82;;;5.80;;
37341;SDS011;58643;49.052;8.518;2023-09-12T12:18:11;10.43;;;6.38;;
37341;SDS011;58643;49.052;8.518;2023-09-12T12:20:37;8.35;;;5.22;;
37341;SDS011;58643;49.052;8.518;2023-09-12T12:23:03;12.52;;;6.40;;
37341;SDS011;58643;49.052;8.518;2023-09-12T12:25:35;13.93;;;5.45;;
37341;SDS011;58643;49.052;8.518;2023-09-12T12:28:01;8.40;;;5.80;;
37341;SDS011;58643;49.052;8.518;2023-09-12T12:30:32;10.98;;;6.07;;
37341;SDS011;58643;49.052;8.518;2023-09-12T12:33:02;8.80;;;5.50;;
37341;SDS011;58643;49.052;8.518;2023-09-12T12:35:32;8.00;;;5.10;;
37341;SDS011;58643;49.052;8.518;2023-09-12T12:37:58;10.23;;;5.10;;
37341;SDS011;58643;49.052;8.518;2023-09-12T12:40:24;12.07;;;5.18;;
37341;SDS011;58643;49.052;8.518;2023-09-12T12:42:50;7.65;;;5.05;;
37341;SDS011;58643;49.052;8.518;2023-09-12T12:45:19;7.90;;;5.00;;
37341;SDS011;58643;49.052;8.518;2023-09-12T12:47:51;8.32;;;5.15;;
37341;SDS011;58643;49.052;8.518;2023-09-12T12:50:22;7.15;;;4.25;;
37341;SDS011;58643;49.052;8.518;2023-09-12T12:52:48;15.55;;;5.97;;
37341;SDS011;58643;49.052;8.518;2023-09-12T12:55:14;8.65;;;4.57;;
37341;SDS011;58643;49.052;8.518;2023-09-12T12:57:42;6.68;;;4.40;;
37341;SDS011;58643;49.052;8.518;2023-09-12T13:00:12;8.55;;;5.10;;
37341;SDS011;58643;49.052;8.518;2023-09-12T13:02:39;7.90;;;4.90;;
37341;SDS011;58643;49.052;8.518;2023-09-12T13:05:27;13.10;;;4.50;;
37341;SDS011;58643;49.052;8.518;2023-09-12T13:07:55;5.25;;;4.28;;
37341;SDS011;58643;49.052;8.518;2023-09-12T13:10:21;9.45;;;4.85;;
37341;SDS011;58643;49.052;8.518;2023-09-12T13:12:47;6.05;;;4.72;;
37341;SDS011;58643;49.052;8.518;2023-09-12T13:15:14;8.88;;;4.45;;
37341;SDS011;58643;49.052;8.518;2023-09-12T13:17:40;7.85;;;4.22;;
37341;SDS011;58643;49.052;8.518;2023-09-12T13:20:06;11.13;;;4.90;;
37341;SDS011;58643;49.052;8.518;2023-09-12T13:22:33;8.43;;;4.50;;
37341;SDS011;58643;49.052;8.518;2023-09-12T13:24:59;9.00;;;4.68;;
37341;SDS011;58643;49.052;8.518;2023-09-12T13:27:25;5.22;;;4.05;;
37341;SDS011;58643;49.052;8.518;2023-09-12T13:29:51;9.18;;;4.47;;
37341;SDS011;58643;49.052;8.518;2023-09-12T13:32:16;9.23;;;4.05;;
37341;SDS011;58643;49.052;8.518;2023-09-12T13:34:43;6.38;;;4.40;;
37341;SDS011;58643;49.052;8.518;2023-09-12T13:37:09;9.98;;;4.75;;
37341;SDS011;58643;49.052;8.518;2023-09-12T13:39:35;6.10;;;4.53;;
37341;SDS011;58643;49.052;8.518;2023-09-12T13:42:01;6.57;;;4.07;;
37341;SDS011;58643;49.052;8.518;2023-09-12T13:44:28;6.90;;;4.53;;
37341;SDS011;58643;49.052;8.518;2023-09-12T13:46:54;12.68;;;4.60;;
37341;SDS011;58643;49.052;8.518;2023-09-12T13:49:19;8.82;;;4.82;;
37341;SDS011;58643;49.052;8.518;2023-09-12T13:51:45;11.32;;;4.63;;
37341;SDS011;58643;49.052;8.518;2023-09-12T13:54:11;7.32;;;4.20;;
37341;SDS011;58643;49.052;8.518;2023-09-12T13:56:40;6.00;;;4.10;;
37341;SDS011;58643;49.052;8.518;2023-09-12T13:59:06;5.60;;;4.15;;
37341;SDS011;58643;49.052;8.518;2023-09-12T14:01:32;7.90;;;4.50;;
37341;SDS011;58643;49.052;8.518;2023-09-12T14:03:57;7.60;;;4.75;;
37341;SDS011;58643;49.052;8.518;2023-09-12T14:06:23;6.20;;;4.60;;
37341;SDS011;58643;49.052;8.518;2023-09-12T14:08:49;9.27;;;4.20;;
37341;SDS011;58643;49.052;8.518;2023-09-12T14:11:14;5.47;;;3.97;;
37341;SDS011;58643;49.052;8.518;2023-09-12T14:13:40;7.22;;;3.83;;
37341;SDS011;58643;49.052;8.518;2023-09-12T14:16:06;7.47;;;4.47;;
37341;SDS011;58643;49.052;8.518;2023-09-12T14:18:31;8.45;;;4.20;;
37341;SDS011;58643;49.052;8.518;2023-09-12T14:20:57;8.45;;;4.07;;
37341;SDS011;58643;49.052;8.518;2023-09-12T14:23:22;7.50;;;4.47;;
37341;SDS011;58643;49.052;8.518;2023-09-12T14:25:48;6.22;;;3.97;;
37341;SDS011;58643;49.052;8.518;2023-09-12T14:28:14;9.27;;;3.95;;
37341;SDS011;58643;49.052;8.518;2023-09-12T14:30:39;6.38;;;4.03;;
37341;SDS011;58643;49.052;8.518;2023-09-12T14:33:09;7.95;;;3.88;;
37341;SDS011;58643;49.052;8.518;2023-09-12T14:35:35;10.02;;;5.30;;
37341;SDS011;58643;49.052;8.518;2023-09-12T14:38:01;6.38;;;4.32;;
37341;SDS011;58643;49.052;8.518;2023-09-12T14:40:27;9.70;;;4.28;;
37341;SDS011;58643;49.052;8.518;2023-09-12T14:42:53;8.50;;;4.28;;
37341;SDS011;58643;49.052;8.518;2023-09-12T14:45:19;8.25;;;4.18;;
37341;SDS011;58643;49.052;8.518;2023-09-12T14:47:44;11.20;;;4.30;;
37341;SDS011;58643;49.052;8.518;2023-09-12T14:50:10;8.15;;;4.43;;
37341;SDS011;58643;49.052;8.518;2023-09-12T14:52:36;7.82;;;4.30;;
